sensor_id;sensor_type;location;lat;lon;timestamp;P1;durP1;ratioP1;P2;durP2;ratioP2
23506;SDS011;11930;53.076;18.250;2023-07-30T00:01:02;6.25;;;4.72;;
23506;SDS011;11930;53.076;18.250;2023-07-30T00:03:40;8.25;;;5.43;;
23506;SDS011;11930;53.076;18.250;2023-07-30T00:06:06;8.57;;;6.13;;
23506;SDS011;11930;53.076;18.250;2023-07-30T00:08:32;9.05;;;5.20;;
23506;SDS011;11930;53.076;18.250;2023-07-30T00:10:58;7.25;;;5.70;;
23506;SDS011;11930;53.076;18.250;2023-07-30T00:13:25;7.57;;;5.38;;
23506;SDS011;11930;53.076;18.250;2023-07-30T00:15:51;7.63;;;5.88;;
23506;SDS011;11930;53.076;18.250;2023-07-30T00:18:17;8.75;;;5.63;;
23506;SDS011;11930;53.076;18.250;2023-07-30T00:20:43;8.25;;;5.60;;
23506;SDS011;11930;53.076;18.250;2023-07-30T00:23:09;7.70;;;6.15;;
23506;SDS011;11930;53.076;18.250;2023-07-30T00:25:35;8.20;;;6.70;;
23506;SDS011;11930;53.076;18.250;2023-07-30T00:28:01;9.23;;;6.72;;
23506;SDS011;11930;53.076;18.250;2023-07-30T00:30:27;8.40;;;5.60;;
23506;SDS011;11930;53.076;18.250;2023-07-30T00:32:53;8.73;;;6.10;;
23506;SDS011;11930;53.076;18.250;2023-07-30T00:35:19;8.85;;;6.80;;
23506;SDS011;11930;53.076;18.250;2023-07-30T00:37:45;8.65;;;6.78;;
23506;SDS011;11930;53.076;18.250;2023-07-30T00:40:11;7.45;;;5.85;;
23506;SDS011;11930;53.076;18.250;2023-07-30T00:42:37;7.47;;;5.88;;
23506;SDS011;11930;53.076;18.250;2023-07-30T00:45:04;9.20;;;6.28;;
23506;SDS011;11930;53.076;18.250;2023-07-30T00:47:30;9.82;;;7.20;;
23506;SDS011;11930;53.076;18.250;2023-07-30T00:49:56;10.50;;;6.60;;
23506;SDS011;11930;53.076;18.250;2023-07-30T00:52:23;9.35;;;6.70;;
23506;SDS011;11930;53.076;18.250;2023-07-30T00:54:52;8.85;;;6.50;;
23506;SDS011;11930;53.076;18.250;2023-07-30T00:57:19;7.78;;;6.18;;
23506;SDS011;11930;53.076;18.250;2023-07-30T00:59:46;8.63;;;5.95;;
23506;SDS011;11930;53.076;18.250;2023-07-30T01:02:13;7.15;;;5.57;;
23506;SDS011;11930;53.076;18.250;2023-07-30T01:04:41;7.40;;;5.53;;
23506;SDS011;11930;53.076;18.250;2023-07-30T01:07:07;9.45;;;6.88;;
23506;SDS011;11930;53.076;18.250;2023-07-30T01:09:33;7.80;;;6.22;;
23506;SDS011;11930;53.076;18.250;2023-07-30T01:11:59;9.27;;;6.50;;
23506;SDS011;11930;53.076;18.250;2023-07-30T01:14:27;9.80;;;6.18;;
23506;SDS011;11930;53.076;18.250;2023-07-30T01:16:54;10.18;;;7.60;;
23506;SDS011;11930;53.076;18.250;2023-07-30T01:19:20;9.70;;;7.78;;
23506;SDS011;11930;53.076;18.250;2023-07-30T01:21:46;8.38;;;6.35;;
23506;SDS011;11930;53.076;18.250;2023-07-30T01:24:12;9.27;;;6.90;;
23506;SDS011;11930;53.076;18.250;2023-07-30T01:26:44;9.05;;;6.88;;
23506;SDS011;11930;53.076;18.250;2023-07-30T01:29:32;8.70;;;6.25;;
23506;SDS011;11930;53.076;18.250;2023-07-30T01:32:11;9.25;;;6.75;;
23506;SDS011;11930;53.076;18.250;2023-07-30T01:34:39;8.70;;;6.93;;
23506;SDS011;11930;53.076;18.250;2023-07-30T01:37:08;10.88;;;8.25;;
23506;SDS011;11930;53.076;18.250;2023-07-30T01:39:36;11.15;;;9.13;;
23506;SDS011;11930;53.076;18.250;2023-07-30T01:42:03;12.63;;;8.68;;
23506;SDS011;11930;53.076;18.250;2023-07-30T01:44:30;11.52;;;8.43;;
23506;SDS011;11930;53.076;18.250;2023-07-30T01:46:56;10.88;;;7.65;;
23506;SDS011;11930;53.076;18.250;2023-07-30T01:49:22;10.82;;;7.43;;
23506;SDS011;11930;53.076;18.250;2023-07-30T01:51:48;13.60;;;7.60;;
23506;SDS011;11930;53.076;18.250;2023-07-30T01:54:14;9.80;;;7.35;;
23506;SDS011;11930;53.076;18.250;2023-07-30T01:56:40;11.48;;;8.02;;
23506;SDS011;11930;53.076;18.250;2023-07-30T01:59:07;13.48;;;8.20;;
23506;SDS011;11930;53.076;18.250;2023-07-30T02:01:33;10.48;;;7.85;;
23506;SDS011;11930;53.076;18.250;2023-07-30T02:03:59;10.20;;;7.47;;
23506;SDS011;11930;53.076;18.250;2023-07-30T02:06:25;11.10;;;8.23;;
23506;SDS011;11930;53.076;18.250;2023-07-30T02:08:52;10.10;;;7.93;;
23506;SDS011;11930;53.076;18.250;2023-07-30T02:11:18;10.82;;;8.07;;
23506;SDS011;11930;53.076;18.250;2023-07-30T02:13:44;10.82;;;8.18;;
23506;SDS011;11930;53.076;18.250;2023-07-30T02:16:10;12.15;;;8.32;;
23506;SDS011;11930;53.076;18.250;2023-07-30T02:18:37;10.43;;;7.75;;
23506;SDS011;11930;53.076;18.250;2023-07-30T02:21:03;9.75;;;7.75;;
23506;SDS011;11930;53.076;18.250;2023-07-30T02:23:29;10.48;;;7.10;;
23506;SDS011;11930;53.076;18.250;2023-07-30T02:25:55;10.88;;;7.60;;
23506;SDS011;11930;53.076;18.250;2023-07-30T02:28:21;10.48;;;7.63;;
23506;SDS011;11930;53.076;18.250;2023-07-30T02:30:47;13.48;;;7.95;;
23506;SDS011;11930;53.076;18.250;2023-07-30T02:33:13;11.77;;;8.38;;
23506;SDS011;11930;53.076;18.250;2023-07-30T02:35:39;11.25;;;7.75;;
23506;SDS011;11930;53.076;18.250;2023-07-30T02:38:05;11.73;;;8.93;;
23506;SDS011;11930;53.076;18.250;2023-07-30T02:40:32;13.52;;;8.30;;
23506;SDS011;11930;53.076;18.250;2023-07-30T02:42:58;12.70;;;8.88;;
23506;SDS011;11930;53.076;18.250;2023-07-30T02:45:25;11.73;;;8.68;;
23506;SDS011;11930;53.076;18.250;2023-07-30T02:47:51;12.68;;;8.80;;
23506;SDS011;11930;53.076;18.250;2023-07-30T02:50:17;11.63;;;8.57;;
23506;SDS011;11930;53.076;18.250;2023-07-30T02:52:43;12.70;;;9.30;;
23506;SDS011;11930;53.076;18.250;2023-07-30T02:55:09;13.43;;;9.10;;
23506;SDS011;11930;53.076;18.250;2023-07-30T02:57:35;10.82;;;8.32;;
23506;SDS011;11930;53.076;18.250;2023-07-30T03:00:01;9.98;;;7.70;;
23506;SDS011;11930;53.076;18.250;2023-07-30T03:02:29;12.48;;;7.88;;
23506;SDS011;11930;53.076;18.250;2023-07-30T03:04:56;11.35;;;8.40;;
23506;SDS011;11930;53.076;18.250;2023-07-30T03:07:22;10.40;;;8.40;;
23506;SDS011;11930;53.076;18.250;2023-07-30T03:09:48;10.75;;;7.80;;
23506;SDS011;11930;53.076;18.250;2023-07-30T03:12:14;12.27;;;8.25;;
23506;SDS011;11930;53.076;18.250;2023-07-30T03:14:40;9.75;;;7.85;;
23506;SDS011;11930;53.076;18.250;2023-07-30T03:17:07;10.82;;;7.85;;
23506;SDS011;11930;53.076;18.250;2023-07-30T03:19:32;13.73;;;8.00;;
23506;SDS011;11930;53.076;18.250;2023-07-30T03:21:59;9.88;;;7.68;;
23506;SDS011;11930;53.076;18.250;2023-07-30T03:24:25;10.98;;;8.05;;
23506;SDS011;11930;53.076;18.250;2023-07-30T03:26:52;10.98;;;7.75;;
23506;SDS011;11930;53.076;18.250;2023-07-30T03:29:17;10.27;;;7.97;;
23506;SDS011;11930;53.076;18.250;2023-07-30T03:31:44;11.10;;;8.10;;
23506;SDS011;11930;53.076;18.250;2023-07-30T03:34:09;11.95;;;8.15;;
23506;SDS011;11930;53.076;18.250;2023-07-30T03:36:35;13.10;;;8.45;;
23506;SDS011;11930;53.076;18.250;2023-07-30T03:39:01;13.07;;;8.48;;
23506;SDS011;11930;53.076;18.250;2023-07-30T03:41:27;11.52;;;7.82;;
23506;SDS011;11930;53.076;18.250;2023-07-30T03:43:53;10.60;;;8.00;;
23506;SDS011;11930;53.076;18.250;2023-07-30T03:46:19;10.90;;;8.50;;
23506;SDS011;11930;53.076;18.250;2023-07-30T03:48:46;12.95;;;8.77;;
23506;SDS011;11930;53.076;18.250;2023-07-30T03:51:12;10.50;;;7.80;;
23506;SDS011;11930;53.076;18.250;2023-07-30T03:53:39;11.30;;;8.48;;
23506;SDS011;11930;53.076;18.250;2023-07-30T03:56:05;10.68;;;8.18;;
23506;SDS011;11930;53.076;18.250;2023-07-30T03:58:31;10.30;;;8.10;;
23506;SDS011;11930;53.076;18.250;2023-07-30T04:00:57;11.43;;;8.50;;
23506;SDS011;11930;53.076;18.250;2023-07-30T04:03:23;11.25;;;7.97;;
23506;SDS011;11930;53.076;18.250;2023-07-30T04:05:49;12.38;;;8.52;;
23506;SDS011;11930;53.076;18.250;2023-07-30T04:08:15;12.25;;;8.10;;
23506;SDS011;11930;53.076;18.250;2023-07-30T04:10:42;11.63;;;8.10;;
23506;SDS011;11930;53.076;18.250;2023-07-30T04:13:07;10.48;;;8.00;;
23506;SDS011;11930;53.076;18.250;2023-07-30T04:15:34;11.60;;;7.60;;
23506;SDS011;11930;53.076;18.250;2023-07-30T04:18:00;11.25;;;7.03;;
23506;SDS011;11930;53.076;18.250;2023-07-30T04:20:26;12.68;;;8.38;;
23506;SDS011;11930;53.076;18.250;2023-07-30T04:22:54;10.23;;;7.75;;
23506;SDS011;11930;53.076;18.250;2023-07-30T04:25:20;13.07;;;8.75;;
23506;SDS011;11930;53.076;18.250;2023-07-30T04:27:46;11.65;;;8.10;;
23506;SDS011;11930;53.076;18.250;2023-07-30T04:30:13;10.68;;;7.90;;
23506;SDS011;11930;53.076;18.250;2023-07-30T04:32:39;11.63;;;8.32;;
23506;SDS011;11930;53.076;18.250;2023-07-30T04:35:05;11.13;;;7.82;;
23506;SDS011;11930;53.076;18.250;2023-07-30T04:37:32;11.70;;;8.27;;
23506;SDS011;11930;53.076;18.250;2023-07-30T04:39:58;11.20;;;8.50;;
23506;SDS011;11930;53.076;18.250;2023-07-30T04:42:25;12.95;;;7.90;;
23506;SDS011;11930;53.076;18.250;2023-07-30T04:44:51;12.18;;;8.85;;
23506;SDS011;11930;53.076;18.250;2023-07-30T04:47:17;12.32;;;8.48;;
23506;SDS011;11930;53.076;18.250;2023-07-30T04:49:43;12.98;;;9.10;;
23506;SDS011;11930;53.076;18.250;2023-07-30T04:52:09;13.93;;;9.20;;
23506;SDS011;11930;53.076;18.250;2023-07-30T04:54:36;12.77;;;9.07;;
23506;SDS011;11930;53.076;18.250;2023-07-30T04:57:03;13.23;;;8.68;;
23506;SDS011;11930;53.076;18.250;2023-07-30T04:59:29;12.65;;;8.50;;
23506;SDS011;11930;53.076;18.250;2023-07-30T05:01:55;13.48;;;9.77;;
23506;SDS011;11930;53.076;18.250;2023-07-30T05:04:21;13.45;;;8.73;;
23506;SDS011;11930;53.076;18.250;2023-07-30T05:06:47;12.73;;;8.82;;
23506;SDS011;11930;53.076;18.250;2023-07-30T05:09:13;14.65;;;9.38;;
23506;SDS011;11930;53.076;18.250;2023-07-30T05:11:39;13.32;;;9.15;;
23506;SDS011;11930;53.076;18.250;2023-07-30T05:14:06;14.07;;;9.02;;
23506;SDS011;11930;53.076;18.250;2023-07-30T05:16:32;13.05;;;9.23;;
23506;SDS011;11930;53.076;18.250;2023-07-30T05:18:58;14.98;;;9.43;;
23506;SDS011;11930;53.076;18.250;2023-07-30T05:21:24;15.05;;;10.27;;
23506;SDS011;11930;53.076;18.250;2023-07-30T05:23:50;14.50;;;9.68;;
23506;SDS011;11930;53.076;18.250;2023-07-30T05:26:16;15.07;;;9.95;;
23506;SDS011;11930;53.076;18.250;2023-07-30T05:28:42;13.27;;;9.32;;
23506;SDS011;11930;53.076;18.250;2023-07-30T05:31:08;17.38;;;10.48;;
23506;SDS011;11930;53.076;18.250;2023-07-30T05:33:34;14.13;;;9.93;;
23506;SDS011;11930;53.076;18.250;2023-07-30T05:36:00;16.52;;;11.30;;
23506;SDS011;11930;53.076;18.250;2023-07-30T05:38:26;15.23;;;10.55;;
23506;SDS011;11930;53.076;18.250;2023-07-30T05:40:52;15.93;;;10.40;;
23506;SDS011;11930;53.076;18.250;2023-07-30T05:43:18;15.98;;;11.40;;
23506;SDS011;11930;53.076;18.250;2023-07-30T05:45:44;14.95;;;10.68;;
23506;SDS011;11930;53.076;18.250;2023-07-30T05:48:10;16.25;;;11.10;;
23506;SDS011;11930;53.076;18.250;2023-07-30T05:50:36;16.60;;;11.43;;
23506;SDS011;11930;53.076;18.250;2023-07-30T05:53:02;15.35;;;10.23;;
23506;SDS011;11930;53.076;18.250;2023-07-30T05:55:28;15.93;;;10.77;;
23506;SDS011;11930;53.076;18.250;2023-07-30T05:57:55;15.68;;;10.43;;
23506;SDS011;11930;53.076;18.250;2023-07-30T06:00:23;21.30;;;11.60;;
23506;SDS011;11930;53.076;18.250;2023-07-30T06:02:50;16.75;;;10.90;;
23506;SDS011;11930;53.076;18.250;2023-07-30T06:05:16;14.75;;;11.10;;
23506;SDS011;11930;53.076;18.250;2023-07-30T06:07:43;17.40;;;11.10;;
23506;SDS011;11930;53.076;18.250;2023-07-30T06:10:09;17.92;;;10.52;;
23506;SDS011;11930;53.076;18.250;2023-07-30T06:12:35;15.90;;;10.77;;
23506;SDS011;11930;53.076;18.250;2023-07-30T06:15:01;15.50;;;10.75;;
23506;SDS011;11930;53.076;18.250;2023-07-30T06:17:27;15.55;;;10.45;;
23506;SDS011;11930;53.076;18.250;2023-07-30T06:19:53;16.50;;;11.07;;
23506;SDS011;11930;53.076;18.250;2023-07-30T06:22:19;15.60;;;11.13;;
23506;SDS011;11930;53.076;18.250;2023-07-30T06:24:45;12.77;;;9.27;;
23506;SDS011;11930;53.076;18.250;2023-07-30T06:27:12;14.65;;;10.65;;
23506;SDS011;11930;53.076;18.250;2023-07-30T06:29:38;16.70;;;10.82;;
23506;SDS011;11930;53.076;18.250;2023-07-30T06:32:05;14.43;;;9.55;;
23506;SDS011;11930;53.076;18.250;2023-07-30T06:34:32;17.13;;;11.45;;
23506;SDS011;11930;53.076;18.250;2023-07-30T06:37:04;15.25;;;10.40;;
23506;SDS011;11930;53.076;18.250;2023-07-30T06:39:31;13.07;;;9.73;;
23506;SDS011;11930;53.076;18.250;2023-07-30T06:41:57;21.13;;;18.92;;
23506;SDS011;11930;53.076;18.250;2023-07-30T06:44:24;13.73;;;9.93;;
23506;SDS011;11930;53.076;18.250;2023-07-30T06:46:51;12.20;;;10.07;;
23506;SDS011;11930;53.076;18.250;2023-07-30T06:49:17;10.27;;;8.60;;
23506;SDS011;11930;53.076;18.250;2023-07-30T06:51:44;20.17;;;18.08;;
23506;SDS011;11930;53.076;18.250;2023-07-30T06:54:14;13.45;;;10.77;;
23506;SDS011;11930;53.076;18.250;2023-07-30T06:56:43;12.30;;;10.13;;
23506;SDS011;11930;53.076;18.250;2023-07-30T06:59:12;11.65;;;8.98;;
23506;SDS011;11930;53.076;18.250;2023-07-30T07:01:42;13.68;;;10.45;;
23506;SDS011;11930;53.076;18.250;2023-07-30T07:04:08;13.35;;;9.77;;
23506;SDS011;11930;53.076;18.250;2023-07-30T07:07:02;12.20;;;9.35;;
23506;SDS011;11930;53.076;18.250;2023-07-30T07:09:29;11.98;;;8.55;;
23506;SDS011;11930;53.076;18.250;2023-07-30T07:14:35;11.25;;;8.98;;
23506;SDS011;11930;53.076;18.250;2023-07-30T07:17:02;17.75;;;12.10;;
23506;SDS011;11930;53.076;18.250;2023-07-30T07:19:28;10.50;;;8.85;;
23506;SDS011;11930;53.076;18.250;2023-07-30T07:21:55;12.27;;;8.70;;
23506;SDS011;11930;53.076;18.250;2023-07-30T07:24:21;14.18;;;12.40;;
23506;SDS011;11930;53.076;18.250;2023-07-30T07:26:48;10.38;;;8.70;;
23506;SDS011;11930;53.076;18.250;2023-07-30T07:29:14;10.50;;;8.35;;
23506;SDS011;11930;53.076;18.250;2023-07-30T07:31:41;11.32;;;8.50;;
23506;SDS011;11930;53.076;18.250;2023-07-30T07:34:07;9.88;;;7.85;;
23506;SDS011;11930;53.076;18.250;2023-07-30T07:36:34;11.15;;;8.50;;
23506;SDS011;11930;53.076;18.250;2023-07-30T07:39:01;10.45;;;9.18;;
23506;SDS011;11930;53.076;18.250;2023-07-30T07:41:28;9.95;;;8.68;;
23506;SDS011;11930;53.076;18.250;2023-07-30T07:43:54;9.85;;;7.45;;
23506;SDS011;11930;53.076;18.250;2023-07-30T07:46:21;10.27;;;8.40;;
23506;SDS011;11930;53.076;18.250;2023-07-30T07:48:47;9.38;;;7.45;;
23506;SDS011;11930;53.076;18.250;2023-07-30T07:51:13;9.05;;;8.13;;
23506;SDS011;11930;53.076;18.250;2023-07-30T07:53:39;15.77;;;11.50;;
23506;SDS011;11930;53.076;18.250;2023-07-30T07:56:05;15.25;;;8.70;;
23506;SDS011;11930;53.076;18.250;2023-07-30T07:58:32;11.07;;;8.10;;
23506;SDS011;11930;53.076;18.250;2023-07-30T08:00:59;15.43;;;13.43;;
23506;SDS011;11930;53.076;18.250;2023-07-30T08:03:28;12.73;;;10.75;;
23506;SDS011;11930;53.076;18.250;2023-07-30T08:05:54;13.50;;;10.38;;
23506;SDS011;11930;53.076;18.250;2023-07-30T08:08:20;9.52;;;8.63;;
23506;SDS011;11930;53.076;18.250;2023-07-30T08:10:46;11.20;;;10.10;;
23506;SDS011;11930;53.076;18.250;2023-07-30T08:13:13;13.00;;;9.23;;
23506;SDS011;11930;53.076;18.250;2023-07-30T08:15:40;8.95;;;7.97;;
23506;SDS011;11930;53.076;18.250;2023-07-30T08:18:06;11.25;;;8.10;;
23506;SDS011;11930;53.076;18.250;2023-07-30T08:20:32;9.32;;;7.38;;
23506;SDS011;11930;53.076;18.250;2023-07-30T08:22:58;9.35;;;7.13;;
23506;SDS011;11930;53.076;18.250;2023-07-30T08:25:28;17.70;;;14.88;;
23506;SDS011;11930;53.076;18.250;2023-07-30T08:27:54;18.52;;;14.40;;
23506;SDS011;11930;53.076;18.250;2023-07-30T08:30:20;8.70;;;7.30;;
23506;SDS011;11930;53.076;18.250;2023-07-30T08:32:46;9.15;;;8.13;;
23506;SDS011;11930;53.076;18.250;2023-07-30T08:35:12;8.60;;;7.70;;
23506;SDS011;11930;53.076;18.250;2023-07-30T08:37:38;9.82;;;7.32;;
23506;SDS011;11930;53.076;18.250;2023-07-30T08:40:04;7.75;;;6.78;;
23506;SDS011;11930;53.076;18.250;2023-07-30T08:42:31;9.25;;;7.30;;
23506;SDS011;11930;53.076;18.250;2023-07-30T08:44:58;7.80;;;6.80;;
23506;SDS011;11930;53.076;18.250;2023-07-30T08:47:25;8.70;;;6.65;;
23506;SDS011;11930;53.076;18.250;2023-07-30T08:49:51;8.98;;;6.88;;
23506;SDS011;11930;53.076;18.250;2023-07-30T08:52:17;52.17;;;40.88;;
23506;SDS011;11930;53.076;18.250;2023-07-30T08:54:46;22.58;;;19.65;;
23506;SDS011;11930;53.076;18.250;2023-07-30T08:57:14;9.63;;;8.63;;
23506;SDS011;11930;53.076;18.250;2023-07-30T08:59:45;7.82;;;7.05;;
23506;SDS011;11930;53.076;18.250;2023-07-30T09:02:18;8.50;;;6.45;;
23506;SDS011;11930;53.076;18.250;2023-07-30T09:04:56;6.47;;;5.50;;
23506;SDS011;11930;53.076;18.250;2023-07-30T09:07:25;7.72;;;5.85;;
23506;SDS011;11930;53.076;18.250;2023-07-30T09:09:51;6.45;;;5.40;;
23506;SDS011;11930;53.076;18.250;2023-07-30T09:12:17;7.38;;;5.72;;
23506;SDS011;11930;53.076;18.250;2023-07-30T09:14:43;8.10;;;6.18;;
23506;SDS011;11930;53.076;18.250;2023-07-30T09:17:10;8.00;;;7.18;;
23506;SDS011;11930;53.076;18.250;2023-07-30T09:19:41;6.05;;;5.07;;
23506;SDS011;11930;53.076;18.250;2023-07-30T09:22:07;7.85;;;5.35;;
23506;SDS011;11930;53.076;18.250;2023-07-30T09:24:33;7.95;;;5.30;;
23506;SDS011;11930;53.076;18.250;2023-07-30T09:27:01;6.57;;;5.05;;
23506;SDS011;11930;53.076;18.250;2023-07-30T09:29:28;7.07;;;5.75;;
23506;SDS011;11930;53.076;18.250;2023-07-30T09:31:54;8.75;;;5.13;;
23506;SDS011;11930;53.076;18.250;2023-07-30T09:34:22;6.13;;;5.53;;
23506;SDS011;11930;53.076;18.250;2023-07-30T09:36:53;6.85;;;5.57;;
23506;SDS011;11930;53.076;18.250;2023-07-30T09:39:32;6.78;;;5.78;;
23506;SDS011;11930;53.076;18.250;2023-07-30T09:42:01;7.32;;;5.90;;
23506;SDS011;11930;53.076;18.250;2023-07-30T09:44:28;6.18;;;5.43;;
23506;SDS011;11930;53.076;18.250;2023-07-30T09:46:54;6.32;;;5.35;;
23506;SDS011;11930;53.076;18.250;2023-07-30T09:49:20;26.63;;;21.45;;
23506;SDS011;11930;53.076;18.250;2023-07-30T09:51:46;12.00;;;9.30;;
23506;SDS011;11930;53.076;18.250;2023-07-30T09:54:16;6.88;;;5.80;;
23506;SDS011;11930;53.076;18.250;2023-07-30T09:56:42;6.38;;;5.45;;
23506;SDS011;11930;53.076;18.250;2023-07-30T09:59:09;8.73;;;5.85;;
23506;SDS011;11930;53.076;18.250;2023-07-30T10:01:41;6.63;;;5.53;;
23506;SDS011;11930;53.076;18.250;2023-07-30T10:04:12;6.13;;;5.13;;
23506;SDS011;11930;53.076;18.250;2023-07-30T10:06:40;7.70;;;5.15;;
23506;SDS011;11930;53.076;18.250;2023-07-30T10:09:10;6.60;;;4.97;;
23506;SDS011;11930;53.076;18.250;2023-07-30T10:11:38;5.20;;;4.70;;
23506;SDS011;11930;53.076;18.250;2023-07-30T10:14:07;5.22;;;4.68;;
23506;SDS011;11930;53.076;18.250;2023-07-30T10:16:33;6.05;;;4.85;;
23506;SDS011;11930;53.076;18.250;2023-07-30T10:18:59;6.55;;;5.20;;
23506;SDS011;11930;53.076;18.250;2023-07-30T10:21:26;6.63;;;4.65;;
23506;SDS011;11930;53.076;18.250;2023-07-30T10:23:59;5.32;;;4.00;;
23506;SDS011;11930;53.076;18.250;2023-07-30T10:26:27;7.38;;;4.38;;
23506;SDS011;11930;53.076;18.250;2023-07-30T10:29:11;5.30;;;4.50;;
23506;SDS011;11930;53.076;18.250;2023-07-30T10:31:40;5.93;;;4.00;;
23506;SDS011;11930;53.076;18.250;2023-07-30T10:34:08;5.25;;;4.13;;
23506;SDS011;11930;53.076;18.250;2023-07-30T10:39:17;4.43;;;3.85;;
23506;SDS011;11930;53.076;18.250;2023-07-30T10:41:51;5.78;;;3.90;;
23506;SDS011;11930;53.076;18.250;2023-07-30T10:44:24;4.82;;;4.00;;
23506;SDS011;11930;53.076;18.250;2023-07-30T10:46:55;6.15;;;3.97;;
23506;SDS011;11930;53.076;18.250;2023-07-30T10:49:23;4.30;;;3.65;;
23506;SDS011;11930;53.076;18.250;2023-07-30T10:51:50;4.50;;;4.10;;
23506;SDS011;11930;53.076;18.250;2023-07-30T10:54:21;6.80;;;3.97;;
23506;SDS011;11930;53.076;18.250;2023-07-30T10:56:47;10.07;;;3.85;;
23506;SDS011;11930;53.076;18.250;2023-07-30T10:59:13;5.88;;;4.10;;
23506;SDS011;11930;53.076;18.250;2023-07-30T11:01:41;5.40;;;3.80;;
23506;SDS011;11930;53.076;18.250;2023-07-30T11:04:13;5.38;;;4.18;;
23506;SDS011;11930;53.076;18.250;2023-07-30T11:06:44;4.10;;;3.53;;
23506;SDS011;11930;53.076;18.250;2023-07-30T11:09:19;5.50;;;3.70;;
23506;SDS011;11930;53.076;18.250;2023-07-30T11:11:46;6.03;;;3.65;;
23506;SDS011;11930;53.076;18.250;2023-07-30T11:14:16;4.18;;;3.53;;
23506;SDS011;11930;53.076;18.250;2023-07-30T11:16:52;6.93;;;4.13;;
23506;SDS011;11930;53.076;18.250;2023-07-30T11:19:19;4.57;;;3.80;;
23506;SDS011;11930;53.076;18.250;2023-07-30T11:21:49;4.82;;;3.42;;
23506;SDS011;11930;53.076;18.250;2023-07-30T11:24:17;4.55;;;3.50;;
23506;SDS011;11930;53.076;18.250;2023-07-30T11:26:43;4.28;;;3.28;;
23506;SDS011;11930;53.076;18.250;2023-07-30T11:29:13;4.10;;;3.63;;
23506;SDS011;11930;53.076;18.250;2023-07-30T11:31:43;6.57;;;3.55;;
23506;SDS011;11930;53.076;18.250;2023-07-30T11:34:11;3.45;;;2.95;;
23506;SDS011;11930;53.076;18.250;2023-07-30T11:36:37;3.70;;;3.28;;
23506;SDS011;11930;53.076;18.250;2023-07-30T11:39:05;5.30;;;3.53;;
23506;SDS011;11930;53.076;18.250;2023-07-30T11:41:32;4.72;;;3.63;;
23506;SDS011;11930;53.076;18.250;2023-07-30T11:43:59;4.07;;;3.40;;
23506;SDS011;11930;53.076;18.250;2023-07-30T11:46:25;4.30;;;3.47;;
23506;SDS011;11930;53.076;18.250;2023-07-30T11:48:53;4.38;;;3.80;;
23506;SDS011;11930;53.076;18.250;2023-07-30T11:51:35;5.93;;;3.38;;
23506;SDS011;11930;53.076;18.250;2023-07-30T11:54:01;5.75;;;3.80;;
23506;SDS011;11930;53.076;18.250;2023-07-30T11:56:29;5.13;;;3.35;;
23506;SDS011;11930;53.076;18.250;2023-07-30T11:58:57;6.97;;;3.63;;
23506;SDS011;11930;53.076;18.250;2023-07-30T12:01:25;3.80;;;3.30;;
23506;SDS011;11930;53.076;18.250;2023-07-30T12:03:54;4.57;;;3.40;;
23506;SDS011;11930;53.076;18.250;2023-07-30T12:06:21;4.13;;;3.33;;
23506;SDS011;11930;53.076;18.250;2023-07-30T12:08:50;3.30;;;3.00;;
23506;SDS011;11930;53.076;18.250;2023-07-30T12:11:17;3.97;;;2.95;;
23506;SDS011;11930;53.076;18.250;2023-07-30T12:13:46;3.65;;;2.95;;
23506;SDS011;11930;53.076;18.250;2023-07-30T12:16:12;3.53;;;3.20;;
23506;SDS011;11930;53.076;18.250;2023-07-30T12:18:39;4.25;;;3.35;;
23506;SDS011;11930;53.076;18.250;2023-07-30T12:21:06;3.35;;;2.67;;
23506;SDS011;11930;53.076;18.250;2023-07-30T12:23:33;2.83;;;2.35;;
23506;SDS011;11930;53.076;18.250;2023-07-30T12:26:00;3.03;;;2.47;;
23506;SDS011;11930;53.076;18.250;2023-07-30T12:28:30;5.03;;;3.30;;
23506;SDS011;11930;53.076;18.250;2023-07-30T12:31:00;3.55;;;2.90;;
23506;SDS011;11930;53.076;18.250;2023-07-30T12:33:26;4.00;;;2.17;;
23506;SDS011;11930;53.076;18.250;2023-07-30T12:35:53;3.60;;;2.28;;
23506;SDS011;11930;53.076;18.250;2023-07-30T12:38:19;2.83;;;2.17;;
23506;SDS011;11930;53.076;18.250;2023-07-30T12:40:45;4.78;;;2.30;;
23506;SDS011;11930;53.076;18.250;2023-07-30T12:43:11;3.35;;;2.63;;
23506;SDS011;11930;53.076;18.250;2023-07-30T12:45:37;2.90;;;1.90;;
23506;SDS011;11930;53.076;18.250;2023-07-30T12:48:04;2.50;;;2.00;;
23506;SDS011;11930;53.076;18.250;2023-07-30T12:50:31;2.75;;;2.17;;
23506;SDS011;11930;53.076;18.250;2023-07-30T12:52:57;2.97;;;2.00;;
23506;SDS011;11930;53.076;18.250;2023-07-30T12:55:23;2.78;;;2.15;;
23506;SDS011;11930;53.076;18.250;2023-07-30T12:57:49;2.50;;;1.88;;
23506;SDS011;11930;53.076;18.250;2023-07-30T13:00:15;2.97;;;2.40;;
23506;SDS011;11930;53.076;18.250;2023-07-30T13:02:43;2.90;;;2.20;;
23506;SDS011;11930;53.076;18.250;2023-07-30T13:05:09;3.42;;;2.40;;
23506;SDS011;11930;53.076;18.250;2023-07-30T13:07:35;3.17;;;2.40;;
23506;SDS011;11930;53.076;18.250;2023-07-30T13:10:08;7.30;;;2.65;;
23506;SDS011;11930;53.076;18.250;2023-07-30T13:12:34;2.88;;;2.38;;
23506;SDS011;11930;53.076;18.250;2023-07-30T13:15:01;2.83;;;2.25;;
23506;SDS011;11930;53.076;18.250;2023-07-30T13:17:29;2.85;;;2.33;;
23506;SDS011;11930;53.076;18.250;2023-07-30T13:19:55;5.30;;;2.47;;
23506;SDS011;11930;53.076;18.250;2023-07-30T13:22:21;3.45;;;2.72;;
23506;SDS011;11930;53.076;18.250;2023-07-30T13:24:47;4.45;;;2.67;;
23506;SDS011;11930;53.076;18.250;2023-07-30T13:27:13;2.97;;;2.60;;
23506;SDS011;11930;53.076;18.250;2023-07-30T13:29:39;5.90;;;3.70;;
23506;SDS011;11930;53.076;18.250;2023-07-30T13:32:05;3.17;;;2.30;;
23506;SDS011;11930;53.076;18.250;2023-07-30T13:34:31;2.92;;;2.10;;
23506;SDS011;11930;53.076;18.250;2023-07-30T13:36:58;2.88;;;2.17;;
23506;SDS011;11930;53.076;18.250;2023-07-30T13:39:23;3.05;;;2.10;;
23506;SDS011;11930;53.076;18.250;2023-07-30T13:41:50;2.60;;;2.10;;
23506;SDS011;11930;53.076;18.250;2023-07-30T13:44:15;3.50;;;2.22;;
23506;SDS011;11930;53.076;18.250;2023-07-30T13:46:42;3.33;;;2.10;;
23506;SDS011;11930;53.076;18.250;2023-07-30T13:49:07;3.42;;;2.08;;
23506;SDS011;11930;53.076;18.250;2023-07-30T13:51:34;2.53;;;2.10;;
23506;SDS011;11930;53.076;18.250;2023-07-30T13:54:00;3.28;;;2.03;;
23506;SDS011;11930;53.076;18.250;2023-07-30T13:56:27;2.83;;;1.80;;
23506;SDS011;11930;53.076;18.250;2023-07-30T13:58:53;3.00;;;2.33;;
23506;SDS011;11930;53.076;18.250;2023-07-30T14:01:20;2.38;;;2.00;;
23506;SDS011;11930;53.076;18.250;2023-07-30T14:03:47;2.80;;;2.00;;
23506;SDS011;11930;53.076;18.250;2023-07-30T14:06:13;2.13;;;1.65;;
23506;SDS011;11930;53.076;18.250;2023-07-30T14:08:39;2.30;;;1.90;;
23506;SDS011;11930;53.076;18.250;2023-07-30T14:11:06;3.28;;;1.75;;
23506;SDS011;11930;53.076;18.250;2023-07-30T14:13:32;3.30;;;1.98;;
23506;SDS011;11930;53.076;18.250;2023-07-30T14:15:58;2.50;;;1.70;;
23506;SDS011;11930;53.076;18.250;2023-07-30T14:18:24;2.65;;;1.80;;
23506;SDS011;11930;53.076;18.250;2023-07-30T14:20:51;2.08;;;1.42;;
23506;SDS011;11930;53.076;18.250;2023-07-30T14:23:18;3.05;;;1.75;;
23506;SDS011;11930;53.076;18.250;2023-07-30T14:25:44;2.88;;;1.98;;
23506;SDS011;11930;53.076;18.250;2023-07-30T14:28:10;2.63;;;1.88;;
23506;SDS011;11930;53.076;18.250;2023-07-30T14:30:36;2.33;;;1.80;;